Terminal Aerodrome Forecast
Issued by NWS

Home | Current Version | Previous Version | Text Only | Print | Product List | Glossary On
Versions: 1 2 3 4 5 6 7 8 9 10 11 12 13 14 15 16 17 18 19 20 21 22 23 24 25 26 27 28 29
000
FTUS41 KBUF 041411 AAA
TAFJHW
TAF AMD
KJHW 041411Z 0414/0512 VRB03KT P6SM BKN012
     FM041600 36008KT P6SM SCT020
     FM050000 VRB03KT P6SM SKC
     FM050800 VRB03KT 5SM BR SKC
      AMD LTD TO CLD VIS AND WIND=

USA.gov is the U.S. government's official web portal to all federal, state and local government web resources and services.